sensor_id;sensor_type;location;lat;lon;timestamp;pressure;altitude;pressure_sealevel;temperature;humidity
66547;BME280;53400;50.364;14.874;2022-12-05T00:01:41;98609.03;;;4.36;100.00
66547;BME280;53400;50.364;14.874;2022-12-05T00:04:10;98615.16;;;4.36;100.00
66547;BME280;53400;50.364;14.874;2022-12-05T00:06:38;98612.28;;;4.38;100.00
66547;BME280;53400;50.364;14.874;2022-12-05T00:09:06;98614.75;;;4.40;100.00
66547;BME280;53400;50.364;14.874;2022-12-05T00:11:35;98605.16;;;4.39;100.00
66547;BME280;53400;50.364;14.874;2022-12-05T00:14:03;98618.44;;;4.39;100.00
66547;BME280;53400;50.364;14.874;2022-12-05T00:16:31;98604.75;;;4.35;100.00
66547;BME280;53400;50.364;14.874;2022-12-05T00:19:00;98614.13;;;4.31;100.00
66547;BME280;53400;50.364;14.874;2022-12-05T00:21:28;98612.50;;;4.30;100.00
66547;BME280;53400;50.364;14.874;2022-12-05T00:23:55;98617.41;;;4.33;100.00
66547;BME280;53400;50.364;14.874;2022-12-05T00:26:22;98618.22;;;4.40;100.00
66547;BME280;53400;50.364;14.874;2022-12-05T00:28:48;98617.19;;;4.34;100.00
66547;BME280;53400;50.364;14.874;2022-12-05T00:31:16;98613.72;;;4.34;100.00
66547;BME280;53400;50.364;14.874;2022-12-05T00:33:42;98613.13;;;4.39;100.00
66547;BME280;53400;50.364;14.874;2022-12-05T00:36:12;98606.97;;;4.38;100.00
66547;BME280;53400;50.364;14.874;2022-12-05T00:38:39;98613.31;;;4.24;100.00
66547;BME280;53400;50.364;14.874;2022-12-05T00:41:07;98615.16;;;4.30;100.00
66547;BME280;53400;50.364;14.874;2022-12-05T00:43:33;98612.09;;;4.33;100.00
66547;BME280;53400;50.364;14.874;2022-12-05T00:46:00;98617.81;;;4.30;100.00
66547;BME280;53400;50.364;14.874;2022-12-05T00:48:27;98607.81;;;4.25;100.00
66547;BME280;53400;50.364;14.874;2022-12-05T00:50:59;98599.44;;;4.28;100.00
66547;BME280;53400;50.364;14.874;2022-12-05T00:53:27;98607.00;;;4.45;100.00
66547;BME280;53400;50.364;14.874;2022-12-05T00:55:53;98599.66;;;4.40;100.00
66547;BME280;53400;50.364;14.874;2022-12-05T00:58:19;98607.38;;;4.35;100.00
66547;BME280;53400;50.364;14.874;2022-12-05T01:00:45;98604.34;;;4.31;100.00
66547;BME280;53400;50.364;14.874;2022-12-05T01:03:11;98598.84;;;4.26;100.00
66547;BME280;53400;50.364;14.874;2022-12-05T01:05:37;98608.22;;;4.29;100.00
66547;BME280;53400;50.364;14.874;2022-12-05T01:08:03;98608.22;;;4.35;100.00
66547;BME280;53400;50.364;14.874;2022-12-05T01:10:30;98619.41;;;4.57;100.00
66547;BME280;53400;50.364;14.874;2022-12-05T01:12:56;98614.72;;;4.53;100.00
66547;BME280;53400;50.364;14.874;2022-12-05T01:15:23;98612.69;;;4.48;100.00
66547;BME280;53400;50.364;14.874;2022-12-05T01:17:49;98612.88;;;4.47;100.00
66547;BME280;53400;50.364;14.874;2022-12-05T01:20:15;98615.16;;;4.36;100.00
66547;BME280;53400;50.364;14.874;2022-12-05T01:22:41;98620.66;;;4.48;100.00
66547;BME280;53400;50.364;14.874;2022-12-05T01:25:08;98615.16;;;4.36;100.00
66547;BME280;53400;50.364;14.874;2022-12-05T01:27:35;98616.38;;;4.54;100.00
66547;BME280;53400;50.364;14.874;2022-12-05T01:30:01;98617.59;;;4.51;100.00
66547;BME280;53400;50.364;14.874;2022-12-05T01:32:27;98607.78;;;4.58;100.00
66547;BME280;53400;50.364;14.874;2022-12-05T01:34:53;98621.88;;;4.52;100.00
66547;BME280;53400;50.364;14.874;2022-12-05T01:37:19;98609.44;;;4.59;100.00
66547;BME280;53400;50.364;14.874;2022-12-05T01:39:47;98610.22;;;4.53;100.00
66547;BME280;53400;50.364;14.874;2022-12-05T01:42:13;98607.41;;;4.42;100.00
66547;BME280;53400;50.364;14.874;2022-12-05T01:45:05;98613.31;;;4.37;100.00
66547;BME280;53400;50.364;14.874;2022-12-05T01:47:34;98613.28;;;4.50;100.00
66547;BME280;53400;50.364;14.874;2022-12-05T01:50:00;98610.06;;;4.48;100.00
66547;BME280;53400;50.364;14.874;2022-12-05T01:52:28;98605.75;;;4.47;100.00
66547;BME280;53400;50.364;14.874;2022-12-05T01:55:05;98609.63;;;4.51;100.00
66547;BME280;53400;50.364;14.874;2022-12-05T01:57:32;98611.88;;;4.54;100.00
66547;BME280;53400;50.364;14.874;2022-12-05T02:00:10;98614.72;;;4.46;100.00
66547;BME280;53400;50.364;14.874;2022-12-05T02:02:38;98610.47;;;4.45;100.00
66547;BME280;53400;50.364;14.874;2022-12-05T02:05:09;98607.19;;;4.43;100.00
66547;BME280;53400;50.364;14.874;2022-12-05T02:07:38;98617.59;;;4.45;100.00
66547;BME280;53400;50.364;14.874;2022-12-05T02:10:06;98614.75;;;4.40;100.00
66547;BME280;53400;50.364;14.874;2022-12-05T02:12:33;98621.88;;;4.46;100.00
66547;BME280;53400;50.364;14.874;2022-12-05T02:15:12;98613.09;;;4.52;100.00
66547;BME280;53400;50.364;14.874;2022-12-05T02:17:47;98622.50;;;4.48;100.00
66547;BME280;53400;50.364;14.874;2022-12-05T02:20:27;98614.94;;;4.58;100.00
66547;BME280;53400;50.364;14.874;2022-12-05T02:29:04;98625.13;;;4.61;100.00
66547;BME280;53400;50.364;14.874;2022-12-05T02:31:43;98625.34;;;4.59;100.00
66547;BME280;53400;50.364;14.874;2022-12-05T02:34:17;98628.78;;;4.53;100.00
66547;BME280;53400;50.364;14.874;2022-12-05T02:36:50;98627.41;;;4.51;100.00
66547;BME280;53400;50.364;14.874;2022-12-05T02:39:26;98627.75;;;4.68;100.00
66547;BME280;53400;50.364;14.874;2022-12-05T02:41:57;98623.69;;;4.58;100.00
66547;BME280;53400;50.364;14.874;2022-12-05T02:44:32;98619.63;;;4.56;100.00
66547;BME280;53400;50.364;14.874;2022-12-05T02:47:03;98628.59;;;4.75;100.00
66547;BME280;53400;50.364;14.874;2022-12-05T02:49:32;98628.16;;;4.85;100.00
66547;BME280;53400;50.364;14.874;2022-12-05T02:52:02;98620.03;;;4.53;100.00
66547;BME280;53400;50.364;14.874;2022-12-05T02:54:32;98625.34;;;4.59;100.00
66547;BME280;53400;50.364;14.874;2022-12-05T02:57:00;98625.72;;;4.56;100.00
66547;BME280;53400;50.364;14.874;2022-12-05T02:59:26;98624.09;;;4.69;100.00
66547;BME280;53400;50.364;14.874;2022-12-05T03:01:52;98627.56;;;4.76;100.00
66547;BME280;53400;50.364;14.874;2022-12-05T03:04:21;98615.72;;;4.78;100.00
66547;BME280;53400;50.364;14.874;2022-12-05T03:06:51;98612.66;;;4.75;100.00
66547;BME280;53400;50.364;14.874;2022-12-05T03:09:20;98617.78;;;4.63;100.00
66547;BME280;53400;50.364;14.874;2022-12-05T03:11:53;98624.94;;;4.63;100.00
66547;BME280;53400;50.364;14.874;2022-12-05T03:14:24;98622.06;;;4.57;100.00
66547;BME280;53400;50.364;14.874;2022-12-05T03:16:52;98624.94;;;4.63;100.00
66547;BME280;53400;50.364;14.874;2022-12-05T03:19:24;98628.81;;;4.60;100.00
66547;BME280;53400;50.364;14.874;2022-12-05T03:21:54;98632.66;;;4.71;100.00
66547;BME280;53400;50.364;14.874;2022-12-05T03:24:21;98625.75;;;4.63;100.00
66547;BME280;53400;50.364;14.874;2022-12-05T03:26:54;98635.13;;;4.59;100.00
66547;BME280;53400;50.364;14.874;2022-12-05T03:29:27;98637.56;;;4.60;100.00
66547;BME280;53400;50.364;14.874;2022-12-05T03:32:05;98633.66;;;4.76;100.00
66547;BME280;53400;50.364;14.874;2022-12-05T03:34:48;98640.19;;;4.80;100.00
66547;BME280;53400;50.364;14.874;2022-12-05T03:37:21;98639.19;;;4.75;100.00
66547;BME280;53400;50.364;14.874;2022-12-05T03:39:53;98646.94;;;4.56;100.00
66547;BME280;53400;50.364;14.874;2022-12-05T03:42:29;98636.13;;;4.71;100.00
66547;BME280;53400;50.364;14.874;2022-12-05T03:44:59;98644.06;;;4.85;100.00
66547;BME280;53400;50.364;14.874;2022-12-05T03:47:32;98645.09;;;4.77;100.00
66547;BME280;53400;50.364;14.874;2022-12-05T03:50:09;98648.78;;;4.56;100.00
66547;BME280;53400;50.364;14.874;2022-12-05T03:52:41;98650.63;;;4.75;100.00
66547;BME280;53400;50.364;14.874;2022-12-05T03:55:09;98653.66;;;4.79;100.00
66547;BME280;53400;50.364;14.874;2022-12-05T03:57:41;98655.50;;;4.65;100.00
66547;BME280;53400;50.364;14.874;2022-12-05T04:00:10;98647.97;;;4.75;100.00
66547;BME280;53400;50.364;14.874;2022-12-05T04:02:40;98646.94;;;4.76;100.00
66547;BME280;53400;50.364;14.874;2022-12-05T04:05:17;98645.09;;;4.70;100.00
66547;BME280;53400;50.364;14.874;2022-12-05T04:07:45;98645.53;;;4.67;100.00
66547;BME280;53400;50.364;14.874;2022-12-05T04:10:17;98644.28;;;4.56;100.00
66547;BME280;53400;50.364;14.874;2022-12-05T04:12:45;98636.31;;;4.76;100.00
66547;BME280;53400;50.364;14.874;2022-12-05T04:15:18;98640.44;;;4.52;100.00
66547;BME280;53400;50.364;14.874;2022-12-05T04:17:49;98643.72;;;4.54;100.00
66547;BME280;53400;50.364;14.874;2022-12-05T04:20:26;98648.41;;;4.46;100.00
66547;BME280;53400;50.364;14.874;2022-12-05T04:23:12;98640.19;;;4.74;100.00
66547;BME280;53400;50.364;14.874;2022-12-05T04:25:49;98631.81;;;4.77;100.00
66547;BME280;53400;50.364;14.874;2022-12-05T04:28:25;98637.97;;;4.71;100.00
66547;BME280;53400;50.364;14.874;2022-12-05T04:31:00;98637.34;;;4.75;100.00
66547;BME280;53400;50.364;14.874;2022-12-05T04:33:31;98639.22;;;4.55;100.00
66547;BME280;53400;50.364;14.874;2022-12-05T04:36:04;98636.75;;;4.67;100.00
66547;BME280;53400;50.364;14.874;2022-12-05T04:38:38;98635.53;;;4.56;100.00
66547;BME280;53400;50.364;14.874;2022-12-05T04:41:10;98631.25;;;4.62;100.00
66547;BME280;53400;50.364;14.874;2022-12-05T04:43:39;98634.72;;;4.69;100.00
66547;BME280;53400;50.364;14.874;2022-12-05T04:46:09;98641.84;;;4.75;100.00
66547;BME280;53400;50.364;14.874;2022-12-05T04:48:37;98640.00;;;4.75;100.00
66547;BME280;53400;50.364;14.874;2022-12-05T04:51:08;98638.19;;;4.49;100.00
66547;BME280;53400;50.364;14.874;2022-12-05T04:53:38;98644.53;;;4.42;100.00
66547;BME280;53400;50.364;14.874;2022-12-05T04:56:07;98652.88;;;4.58;100.00
66547;BME280;53400;50.364;14.874;2022-12-05T04:58:34;98654.50;;;4.73;100.00
66547;BME280;53400;50.364;14.874;2022-12-05T05:01:05;98660.44;;;4.75;100.00
66547;BME280;53400;50.364;14.874;2022-12-05T05:03:37;98656.94;;;4.74;100.00
66547;BME280;53400;50.364;14.874;2022-12-05T05:06:07;98658.59;;;4.69;100.00
66547;BME280;53400;50.364;14.874;2022-12-05T05:08:35;98657.16;;;4.53;100.00
66547;BME280;53400;50.364;14.874;2022-12-05T05:11:08;98659.00;;;4.46;100.00
66547;BME280;53400;50.364;14.874;2022-12-05T05:13:36;98655.31;;;4.73;100.00
66547;BME280;53400;50.364;14.874;2022-12-05T05:16:02;98660.59;;;4.80;100.00
66547;BME280;53400;50.364;14.874;2022-12-05T05:18:28;98663.88;;;4.55;100.00
66547;BME280;53400;50.364;14.874;2022-12-05T05:20:54;98651.66;;;4.54;100.00
66547;BME280;53400;50.364;14.874;2022-12-05T05:23:22;98649.19;;;4.53;100.00
66547;BME280;53400;50.364;14.874;2022-12-05T05:25:51;98655.50;;;4.65;100.00
66547;BME280;53400;50.364;14.874;2022-12-05T05:28:17;98658.38;;;4.50;100.00
66547;BME280;53400;50.364;14.874;2022-12-05T05:30:43;98660.44;;;4.42;100.00
66547;BME280;53400;50.364;14.874;2022-12-05T05:33:09;98654.13;;;4.36;100.00
66547;BME280;53400;50.364;14.874;2022-12-05T05:35:35;98654.09;;;4.43;100.00
66547;BME280;53400;50.364;14.874;2022-12-05T05:38:01;98654.09;;;4.56;100.00
66547;BME280;53400;50.364;14.874;2022-12-05T05:40:29;98653.31;;;4.35;100.00
66547;BME280;53400;50.364;14.874;2022-12-05T05:42:55;98665.34;;;4.51;100.00
66547;BME280;53400;50.364;14.874;2022-12-05T05:45:21;98668.97;;;4.50;100.00
66547;BME280;53400;50.364;14.874;2022-12-05T05:47:47;98670.22;;;4.61;100.00
66547;BME280;53400;50.364;14.874;2022-12-05T05:50:14;98665.13;;;4.46;100.00
66547;BME280;53400;50.364;14.874;2022-12-05T05:52:40;98673.28;;;4.78;100.00
66547;BME280;53400;50.364;14.874;2022-12-05T05:55:07;98680.03;;;4.60;100.00
66547;BME280;53400;50.364;14.874;2022-12-05T05:57:35;98683.47;;;4.81;100.00
66547;BME280;53400;50.364;14.874;2022-12-05T06:00:03;98683.88;;;4.65;100.00
66547;BME280;53400;50.364;14.874;2022-12-05T06:02:31;98680.63;;;4.76;100.00
66547;BME280;53400;50.364;14.874;2022-12-05T06:04:57;98673.41;;;5.68;100.00
66547;BME280;53400;50.364;14.874;2022-12-05T06:07:23;98689.03;;;5.38;100.00
66547;BME280;53400;50.364;14.874;2022-12-05T06:09:49;98701.56;;;5.17;100.00
66547;BME280;53400;50.364;14.874;2022-12-05T06:12:15;98699.75;;;5.18;100.00
66547;BME280;53400;50.364;14.874;2022-12-05T06:14:42;98702.22;;;5.06;100.00
66547;BME280;53400;50.364;14.874;2022-12-05T06:17:08;98700.97;;;5.02;100.00
66547;BME280;53400;50.364;14.874;2022-12-05T06:19:34;98696.50;;;4.89;100.00
66547;BME280;53400;50.364;14.874;2022-12-05T06:22:00;98704.69;;;4.74;100.00
66547;BME280;53400;50.364;14.874;2022-12-05T06:24:26;98705.28;;;4.90;100.00
66547;BME280;53400;50.364;14.874;2022-12-05T06:26:52;98700.59;;;4.98;100.00
66547;BME280;53400;50.364;14.874;2022-12-05T06:29:18;98710.00;;;4.88;100.00
66547;BME280;53400;50.364;14.874;2022-12-05T06:31:45;98714.47;;;4.80;100.00
66547;BME280;53400;50.364;14.874;2022-12-05T06:34:11;98716.97;;;4.69;100.00
66547;BME280;53400;50.364;14.874;2022-12-05T06:36:37;98726.53;;;4.63;100.00
66547;BME280;53400;50.364;14.874;2022-12-05T06:39:03;98728.59;;;4.81;100.00
66547;BME280;53400;50.364;14.874;2022-12-05T06:41:29;98727.13;;;4.65;100.00
66547;BME280;53400;50.364;14.874;2022-12-05T06:43:57;98730.41;;;4.54;100.00
66547;BME280;53400;50.364;14.874;2022-12-05T06:46:24;98727.94;;;4.52;100.00
66547;BME280;53400;50.364;14.874;2022-12-05T06:48:53;98735.09;;;4.65;100.00
66547;BME280;53400;50.364;14.874;2022-12-05T06:51:19;98724.09;;;4.81;100.00
66547;BME280;53400;50.364;14.874;2022-12-05T06:53:45;98726.72;;;4.62;100.00
66547;BME280;53400;50.364;14.874;2022-12-05T06:56:13;98728.78;;;4.66;100.00
66547;BME280;53400;50.364;14.874;2022-12-05T06:58:40;98732.84;;;4.62;100.00
66547;BME280;53400;50.364;14.874;2022-12-05T07:01:10;98734.91;;;4.80;100.00
66547;BME280;53400;50.364;14.874;2022-12-05T07:03:56;98734.91;;;4.67;100.00
66547;BME280;53400;50.364;14.874;2022-12-05T07:06:22;98737.75;;;4.85;100.00
66547;BME280;53400;50.364;14.874;2022-12-05T07:08:48;98750.00;;;4.79;100.00
66547;BME280;53400;50.364;14.874;2022-12-05T07:11:14;98748.59;;;4.90;100.00
66547;BME280;53400;50.364;14.874;2022-12-05T07:13:40;98757.38;;;4.84;100.00
66547;BME280;53400;50.364;14.874;2022-12-05T07:16:06;98761.44;;;5.00;100.00
66547;BME280;53400;50.364;14.874;2022-12-05T07:18:33;98765.91;;;5.13;100.00
66547;BME280;53400;50.364;14.874;2022-12-05T07:21:03;98763.47;;;5.04;100.00
66547;BME280;53400;50.364;14.874;2022-12-05T07:23:29;98764.91;;;4.87;100.00
66547;BME280;53400;50.364;14.874;2022-12-05T07:25:55;98773.25;;;4.64;100.00
66547;BME280;53400;50.364;14.874;2022-12-05T07:28:22;98767.34;;;4.89;100.00
66547;BME280;53400;50.364;14.874;2022-12-05T07:30:58;98770.63;;;4.91;100.00
66547;BME280;53400;50.364;14.874;2022-12-05T07:33:24;98770.44;;;4.66;100.00
66547;BME280;53400;50.364;14.874;2022-12-05T07:35:49;98771.63;;;4.70;100.00
66547;BME280;53400;50.364;14.874;2022-12-05T07:38:17;98762.06;;;4.69;100.00
66547;BME280;53400;50.364;14.874;2022-12-05T07:40:43;98773.69;;;4.81;100.00
66547;BME280;53400;50.364;14.874;2022-12-05T07:43:09;98772.88;;;4.87;100.00
66547;BME280;53400;50.364;14.874;2022-12-05T07:45:35;98775.50;;;4.74;100.00
66547;BME280;53400;50.364;14.874;2022-12-05T07:48:01;98774.50;;;4.88;100.00
66547;BME280;53400;50.364;14.874;2022-12-05T07:50:27;98770.59;;;4.77;100.00
66547;BME280;53400;50.364;14.874;2022-12-05T07:52:53;98783.06;;;4.83;100.00
66547;BME280;53400;50.364;14.874;2022-12-05T07:55:20;98784.72;;;4.91;100.00
66547;BME280;53400;50.364;14.874;2022-12-05T07:57:46;98794.13;;;4.87;100.00
66547;BME280;53400;50.364;14.874;2022-12-05T08:00:13;98785.03;;;4.35;100.00
66547;BME280;53400;50.364;14.874;2022-12-05T08:02:40;98790.00;;;4.65;100.00
66547;BME280;53400;50.364;14.874;2022-12-05T08:05:06;98779.31;;;4.25;100.00
66547;BME280;53400;50.364;14.874;2022-12-05T08:07:32;98782.63;;;4.53;100.00
66547;BME280;53400;50.364;14.874;2022-12-05T08:09:58;98787.50;;;4.36;100.00
66547;BME280;53400;50.364;14.874;2022-12-05T08:12:26;98795.47;;;4.50;100.00
66547;BME280;53400;50.364;14.874;2022-12-05T08:14:51;98790.63;;;4.60;100.00
66547;BME280;53400;50.364;14.874;2022-12-05T08:17:17;98786.47;;;4.24;100.00
66547;BME280;53400;50.364;14.874;2022-12-05T08:19:43;98790.41;;;4.55;100.00
66547;BME280;53400;50.364;14.874;2022-12-05T08:22:09;98787.97;;;4.67;100.00
66547;BME280;53400;50.364;14.874;2022-12-05T08:24:35;98791.25;;;4.89;100.00
66547;BME280;53400;50.364;14.874;2022-12-05T08:27:03;98797.16;;;4.97;100.00
66547;BME280;53400;50.364;14.874;2022-12-05T08:29:31;98796.16;;;4.78;100.00
66547;BME280;53400;50.364;14.874;2022-12-05T08:31:57;98803.06;;;4.86;100.00
66547;BME280;53400;50.364;14.874;2022-12-05T08:34:23;98810.63;;;4.96;100.00
66547;BME280;53400;50.364;14.874;2022-12-05T08:36:49;98812.06;;;4.92;100.00
66547;BME280;53400;50.364;14.874;2022-12-05T08:39:17;98814.50;;;4.73;100.00
66547;BME280;53400;50.364;14.874;2022-12-05T08:41:45;98823.44;;;4.59;100.00
66547;BME280;53400;50.364;14.874;2022-12-05T08:44:12;98820.63;;;4.74;100.00
66547;BME280;53400;50.364;14.874;2022-12-05T08:46:44;98822.06;;;4.70;100.00
66547;BME280;53400;50.364;14.874;2022-12-05T08:49:11;98822.91;;;4.90;100.00
66547;BME280;53400;50.364;14.874;2022-12-05T08:51:38;98833.69;;;4.89;100.00
66547;BME280;53400;50.364;14.874;2022-12-05T08:54:04;98835.72;;;4.80;100.00
66547;BME280;53400;50.364;14.874;2022-12-05T08:56:30;98828.38;;;4.75;100.00
66547;BME280;53400;50.364;14.874;2022-12-05T08:58:58;98842.25;;;4.71;100.00
66547;BME280;53400;50.364;14.874;2022-12-05T09:01:24;98832.84;;;4.68;100.00
66547;BME280;53400;50.364;14.874;2022-12-05T09:03:56;98843.06;;;4.65;100.00
66547;BME280;53400;50.364;14.874;2022-12-05T09:06:24;98841.63;;;4.62;100.00
66547;BME280;53400;50.364;14.874;2022-12-05T09:08:53;98842.06;;;4.72;100.00
66547;BME280;53400;50.364;14.874;2022-12-05T09:11:21;98849.56;;;4.62;100.00
66547;BME280;53400;50.364;14.874;2022-12-05T09:13:49;98842.88;;;4.66;100.00
66547;BME280;53400;50.364;14.874;2022-12-05T09:16:17;98850.41;;;4.63;100.00
66547;BME280;53400;50.364;14.874;2022-12-05T09:18:44;98849.97;;;4.52;100.00
66547;BME280;53400;50.364;14.874;2022-12-05T09:21:13;98848.16;;;4.66;100.00
66547;BME280;53400;50.364;14.874;2022-12-05T09:23:39;98855.72;;;4.63;100.00
66547;BME280;53400;50.364;14.874;2022-12-05T09:26:08;98859.59;;;4.67;100.00
66547;BME280;53400;50.364;14.874;2022-12-05T09:28:35;98857.75;;;4.60;100.00
66547;BME280;53400;50.364;14.874;2022-12-05T09:31:03;98862.66;;;4.64;100.00
66547;BME280;53400;50.364;14.874;2022-12-05T09:33:30;98867.31;;;4.62;100.00
66547;BME280;53400;50.364;14.874;2022-12-05T09:35:57;98875.75;;;4.78;100.00
66547;BME280;53400;50.364;14.874;2022-12-05T09:38:24;98873.88;;;4.66;100.00
66547;BME280;53400;50.364;14.874;2022-12-05T09:40:55;98873.84;;;4.59;100.00
66547;BME280;53400;50.364;14.874;2022-12-05T09:43:30;98870.16;;;4.53;100.00
66547;BME280;53400;50.364;14.874;2022-12-05T09:46:03;98865.13;;;4.72;100.00
66547;BME280;53400;50.364;14.874;2022-12-05T09:48:34;98858.38;;;4.63;100.00
66547;BME280;53400;50.364;14.874;2022-12-05T09:51:04;98855.75;;;4.82;100.00
66547;BME280;53400;50.364;14.874;2022-12-05T09:53:33;98849.16;;;4.58;100.00
66547;BME280;53400;50.364;14.874;2022-12-05T09:56:03;98863.84;;;4.48;100.00
66547;BME280;53400;50.364;14.874;2022-12-05T09:58:38;98860.41;;;4.60;100.00
66547;BME280;53400;50.364;14.874;2022-12-05T10:01:23;98859.00;;;4.78;100.00
66547;BME280;53400;50.364;14.874;2022-12-05T10:04:01;98858.41;;;4.89;100.00
66547;BME280;53400;50.364;14.874;2022-12-05T10:06:33;98859.22;;;4.83;100.00
66547;BME280;53400;50.364;14.874;2022-12-05T10:09:11;98857.19;;;4.98;100.00
66547;BME280;53400;50.364;14.874;2022-12-05T10:11:44;98866.34;;;4.82;100.00
66547;BME280;53400;50.364;14.874;2022-12-05T10:14:17;98869.41;;;4.93;100.00
66547;BME280;53400;50.364;14.874;2022-12-05T10:16:49;98863.91;;;4.88;100.00
66547;BME280;53400;50.364;14.874;2022-12-05T10:19:21;98868.59;;;4.86;100.00
66547;BME280;53400;50.364;14.874;2022-12-05T10:21:51;98868.41;;;4.87;100.00
66547;BME280;53400;50.364;14.874;2022-12-05T10:24:24;98865.53;;;4.82;100.00
66547;BME280;53400;50.364;14.874;2022-12-05T10:26:56;98872.28;;;4.78;100.00
66547;BME280;53400;50.364;14.874;2022-12-05T10:29:28;98873.28;;;4.77;100.00
66547;BME280;53400;50.364;14.874;2022-12-05T10:32:01;98871.44;;;4.71;100.00
66547;BME280;53400;50.364;14.874;2022-12-05T10:34:32;98860.63;;;4.66;100.00
66547;BME280;53400;50.364;14.874;2022-12-05T10:37:07;98857.50;;;4.49;100.00
66547;BME280;53400;50.364;14.874;2022-12-05T10:39:36;98866.13;;;4.71;100.00
66547;BME280;53400;50.364;14.874;2022-12-05T10:42:02;98867.94;;;4.57;100.00
66547;BME280;53400;50.364;14.874;2022-12-05T10:44:29;98861.53;;;4.38;100.00
66547;BME280;53400;50.364;14.874;2022-12-05T10:46:56;98863.03;;;4.60;100.00
66547;BME280;53400;50.364;14.874;2022-12-05T10:49:22;98860.22;;;4.82;100.00
66547;BME280;53400;50.364;14.874;2022-12-05T10:51:49;98864.72;;;4.75;100.00
66547;BME280;53400;50.364;14.874;2022-12-05T10:54:17;98864.09;;;4.66;100.00
66547;BME280;53400;50.364;14.874;2022-12-05T10:56:48;98867.53;;;4.60;100.00
66547;BME280;53400;50.364;14.874;2022-12-05T10:59:16;98859.78;;;4.58;100.00
66547;BME280;53400;50.364;14.874;2022-12-05T11:01:46;98860.22;;;4.69;100.00
66547;BME280;53400;50.364;14.874;2022-12-05T11:04:25;98857.56;;;4.69;100.00
66547;BME280;53400;50.364;14.874;2022-12-05T11:06:54;98854.69;;;4.70;100.00
66547;BME280;53400;50.364;14.874;2022-12-05T11:09:22;98855.50;;;4.57;100.00
66547;BME280;53400;50.364;14.874;2022-12-05T11:12:12;98851.81;;;4.58;100.00
66547;BME280;53400;50.364;14.874;2022-12-05T11:14:39;98848.81;;;4.75;100.00
66547;BME280;53400;50.364;14.874;2022-12-05T11:17:23;98841.47;;;4.97;100.00
66547;BME280;53400;50.364;14.874;2022-12-05T11:19:49;98842.69;;;4.88;100.00
66547;BME280;53400;50.364;14.874;2022-12-05T11:22:16;98843.91;;;4.92;100.00
66547;BME280;53400;50.364;14.874;2022-12-05T11:24:42;98845.56;;;5.06;100.00
66547;BME280;53400;50.364;14.874;2022-12-05T11:27:30;98847.78;;;4.82;100.00
66547;BME280;53400;50.364;14.874;2022-12-05T11:30:00;98845.53;;;4.73;100.00
66547;BME280;53400;50.364;14.874;2022-12-05T11:32:28;98838.81;;;4.97;100.00
66547;BME280;53400;50.364;14.874;2022-12-05T11:35:00;98836.97;;;4.91;100.00
66547;BME280;53400;50.364;14.874;2022-12-05T11:37:34;98835.53;;;4.88;100.00
66547;BME280;53400;50.364;14.874;2022-12-05T11:40:00;98837.56;;;4.86;100.00
66547;BME280;53400;50.364;14.874;2022-12-05T11:42:36;98836.75;;;4.86;100.00
66547;BME280;53400;50.364;14.874;2022-12-05T11:48:25;98832.47;;;4.91;100.00
66547;BME280;53400;50.364;14.874;2022-12-05T11:51:07;98832.66;;;4.63;100.00
66547;BME280;53400;50.364;14.874;2022-12-05T11:54:03;98827.53;;;4.62;100.00
66547;BME280;53400;50.364;14.874;2022-12-05T11:56:37;98833.28;;;4.98;100.00
66547;BME280;53400;50.364;14.874;2022-12-05T11:59:25;98829.81;;;5.04;100.00
66547;BME280;53400;50.364;14.874;2022-12-05T12:01:57;98817.78;;;5.09;100.00
66547;BME280;53400;50.364;14.874;2022-12-05T12:04:37;98818.19;;;4.92;100.00
66547;BME280;53400;50.364;14.874;2022-12-05T12:07:24;98815.13;;;4.89;100.00
66547;BME280;53400;50.364;14.874;2022-12-05T12:09:57;98809.41;;;4.98;100.00
66547;BME280;53400;50.364;14.874;2022-12-05T12:12:29;98819.03;;;4.99;100.00
66547;BME280;53400;50.364;14.874;2022-12-05T12:15:18;98818.81;;;5.01;100.00
66547;BME280;53400;50.364;14.874;2022-12-05T12:17:55;98812.06;;;4.72;100.00
66547;BME280;53400;50.364;14.874;2022-12-05T12:20:35;98809.41;;;4.72;100.00
66547;BME280;53400;50.364;14.874;2022-12-05T12:23:19;98808.81;;;4.96;100.00
66547;BME280;53400;50.364;14.874;2022-12-05T12:25:59;98808.59;;;4.91;100.00
66547;BME280;53400;50.364;14.874;2022-12-05T12:28:41;98802.66;;;4.82;100.00
66547;BME280;53400;50.364;14.874;2022-12-05T12:31:38;98810.44;;;4.84;100.00
66547;BME280;53400;50.364;14.874;2022-12-05T12:34:21;98812.06;;;5.12;100.00
66547;BME280;53400;50.364;14.874;2022-12-05T12:36:59;98806.72;;;5.32;100.00
66547;BME280;53400;50.364;14.874;2022-12-05T12:39:36;98809.81;;;4.89;100.00
66547;BME280;53400;50.364;14.874;2022-12-05T12:42:17;98811.03;;;4.93;100.00
66547;BME280;53400;50.364;14.874;2022-12-05T12:44:57;98807.16;;;4.69;100.00
66547;BME280;53400;50.364;14.874;2022-12-05T12:47:36;98820.63;;;4.80;100.00
66547;BME280;53400;50.364;14.874;2022-12-05T12:50:11;98810.00;;;4.60;100.00
66547;BME280;53400;50.364;14.874;2022-12-05T12:52:53;98810.22;;;4.66;100.00
66547;BME280;53400;50.364;14.874;2022-12-05T12:55:27;98807.16;;;4.89;100.00
66547;BME280;53400;50.364;14.874;2022-12-05T12:58:05;98806.75;;;4.78;100.00
66547;BME280;53400;50.364;14.874;2022-12-05T13:00:44;98802.88;;;4.94;100.00
66547;BME280;53400;50.364;14.874;2022-12-05T13:03:19;98805.13;;;5.04;100.00
66547;BME280;53400;50.364;14.874;2022-12-05T13:05:49;98812.69;;;5.27;100.00
66547;BME280;53400;50.364;14.874;2022-12-05T13:08:23;98815.94;;;5.42;100.00
66547;BME280;53400;50.364;14.874;2022-12-05T13:10:51;98812.88;;;5.39;100.00
66547;BME280;53400;50.364;14.874;2022-12-05T13:13:20;98812.25;;;5.30;100.00
66547;BME280;53400;50.364;14.874;2022-12-05T13:15:49;98812.47;;;4.95;100.00